Time;durP1;ratioP1;P1;durP2;ratioP2;P2;SDS_P1;SDS_P2;PMS_P1;PMS_P2;Temp;Humidity;BMP_temperature;BMP_pressure;BME280_temperature;BME280_humidity;BME280_pressure;Samples;Min_cycle;Max_cycle;Signal;HPM_P1;HPM_P2
2021/11/29 00:04:12;;;;;;;36.80;17.02;;;;;;;0.98;100.00;98780.52;4956680;58;1136986;-84
2021/11/29 00:09:18;;;;;;;33.98;17.37;;;;;;;0.94;100.00;98782.48;4956268;58;1137147;-84
2021/11/29 00:14:24;;;;;;;41.23;18.02;;;;;;;0.95;100.00;98786.77;4957648;58;1136918;-84
2021/11/29 00:19:30;;;;;;;34.30;17.50;;;;;;;0.95;100.00;98784.62;4894659;58;1136960;-84
2021/11/29 00:24:36;;;;;;;38.13;18.20;;;;;;;0.93;100.00;98783.42;4880496;59;1136949;-84
2021/11/29 00:29:44;;;;;;;33.63;16.17;;;;;;;0.91;100.00;98786.63;4880123;59;1136967;-84
2021/11/29 00:34:50;;;;;;;29.10;16.63;;;;;;;0.90;100.00;98782.81;4879680;59;1136938;-83
2021/11/29 00:39:56;;;;;;;34.90;18.23;;;;;;;0.94;100.00;98786.86;4879931;59;1134948;-84
2021/11/29 00:45:04;;;;;;;31.57;15.40;;;;;;;0.94;100.00;98791.60;4898882;60;21148;-83
2021/11/29 00:50:13;;;;;;;32.23;15.97;;;;;;;0.95;100.00;98789.36;4879958;60;1134706;-84
2021/11/29 00:55:20;;;;;;;34.13;15.43;;;;;;;1.01;100.00;98792.05;4880347;59;1139018;-84
2021/11/29 01:00:27;;;;;;;36.60;16.50;;;;;;;1.07;100.00;98789.52;4880533;59;1139213;-84
2021/11/29 01:05:33;;;;;;;28.67;15.27;;;;;;;1.07;100.00;98799.92;4879240;59;1139118;-84
2021/11/29 01:10:39;;;;;;;27.87;14.53;;;;;;;1.03;100.00;98804.02;4879449;58;1139523;-83
2021/11/29 01:15:45;;;;;;;30.20;13.57;;;;;;;1.06;100.00;98805.59;4883825;58;1139123;-83
2021/11/29 01:20:51;;;;;;;24.37;13.97;;;;;;;1.14;100.00;98802.47;4956997;58;1139079;-83
2021/11/29 01:25:58;;;;;;;24.43;13.40;;;;;;;1.15;100.00;98801.54;4956608;59;1139046;-84
2021/11/29 01:31:04;;;;;;;16.77;9.13;;;;;;;1.14;100.00;98798.09;4957754;57;1139084;-83
2021/11/29 01:36:10;;;;;;;23.30;11.77;;;;;;;1.14;100.00;98794.66;4958291;57;1137150;-84
2021/11/29 01:41:17;;;;;;;17.48;9.75;;;;;;;1.10;100.00;98799.23;4957937;58;1139286;-83
2021/11/29 01:46:22;;;;;;;19.77;11.00;;;;;;;1.14;100.00;98805.08;4956555;58;1137034;-84
2021/11/29 01:51:28;;;;;;;16.90;10.77;;;;;;;1.09;100.00;98805.37;4957823;58;1139345;-85
2021/11/29 01:56:34;;;;;;;17.03;10.73;;;;;;;1.05;100.00;98801.33;4958297;58;1139591;-84
2021/11/29 02:01:40;;;;;;;13.90;8.90;;;;;;;1.08;100.00;98802.39;4957528;58;1139005;-84
2021/11/29 02:06:46;;;;;;;12.67;7.47;;;;;;;1.09;100.00;98801.94;4957135;58;1136979;-84
2021/11/29 02:11:55;;;;;;;18.10;10.00;;;;;;;1.07;100.00;98793.42;4957570;58;1137008;-84
2021/11/29 02:17:00;;;;;;;12.20;7.57;;;;;;;1.01;100.00;98794.18;4957420;59;1138990;-84
2021/11/29 02:22:06;;;;;;;13.13;7.43;;;;;;;1.01;100.00;98798.08;4956886;58;1136960;-85
2021/11/29 02:27:13;;;;;;;16.47;9.90;;;;;;;0.99;100.00;98792.14;4957391;58;1136937;-83
2021/11/29 02:32:18;;;;;;;18.37;9.90;;;;;;;0.96;100.00;98801.45;4957333;58;1137226;-84
2021/11/29 02:37:24;;;;;;;12.27;7.43;;;;;;;1.01;100.00;98802.45;4957329;58;1137163;-84
2021/11/29 02:42:29;;;;;;;14.70;9.57;;;;;;;1.01;100.00;98797.25;4956876;58;1137209;-83
2021/11/29 02:47:35;;;;;;;14.13;8.00;;;;;;;1.00;100.00;98803.39;4957868;58;1136952;-84
2021/11/29 02:52:43;;;;;;;17.47;9.20;;;;;;;1.01;100.00;98798.08;4957025;58;1136956;-85
2021/11/29 02:57:49;;;;;;;12.87;8.03;;;;;;;0.96;100.00;98798.84;4957103;59;1137068;-84
2021/11/29 03:03:07;;;;;;;9.03;4.97;;;;;;;0.93;100.00;98799.04;4911733;59;1137321;-84
2021/11/29 03:08:12;;;;;;;13.37;8.97;;;;;;;0.90;100.00;98795.83;4958490;59;1135136;-83
2021/11/29 03:13:18;;;;;;;11.67;7.80;;;;;;;0.89;100.00;98800.66;4957072;59;1136874;-85
2021/11/29 03:18:33;;;;;;;9.67;5.37;;;;;;;0.86;100.00;98799.09;4910541;58;1137231;-85
2021/11/29 03:23:39;;;;;;;8.43;5.33;;;;;;;0.86;100.00;98791.75;4964650;58;1135089;-84
2021/11/29 03:28:49;;;;;;;9.83;7.00;;;;;;;0.83;100.00;98790.17;5006454;58;1134861;-85
2021/11/29 03:33:57;;;;;;;7.92;5.45;;;;;;;0.77;100.00;98789.27;5030475;57;1134893;-84
2021/11/29 03:39:08;;;;;;;10.67;5.50;;;;;;;0.80;100.00;98785.16;4981085;57;1132679;-84
2021/11/29 03:44:14;;;;;;;6.73;4.77;;;;;;;0.78;100.00;98783.13;4956969;58;1135211;-84
2021/11/29 03:49:22;;;;;;;7.10;5.50;;;;;;;0.74;100.00;98788.66;4956886;58;1132954;-84
2021/11/29 03:54:28;;;;;;;7.07;5.20;;;;;;;0.76;100.00;98797.20;4956536;58;1132945;-84
2021/11/29 03:59:35;;;;;;;7.10;4.23;;;;;;;0.83;100.00;98797.15;4956774;58;1133079;-84
2021/11/29 04:04:41;;;;;;;7.97;5.00;;;;;;;0.83;100.00;98798.45;4978288;58;1132758;-85
2021/11/29 04:09:46;;;;;;;6.47;5.17;;;;;;;0.81;100.00;98798.55;5000132;58;1133206;-84
2021/11/29 04:14:53;;;;;;;5.57;4.73;;;;;;;0.82;100.00;98804.59;5029135;58;1133062;-84
2021/11/29 04:19:59;;;;;;;10.08;6.72;;;;;;;0.82;100.00;98806.72;4907621;58;1132715;-84
2021/11/29 04:25:11;;;;;;;10.13;6.60;;;;;;;0.79;100.00;98811.28;4887066;59;1134924;-82
2021/11/29 04:30:23;;;;;;;10.20;6.07;;;;;;;0.73;100.00;98814.30;4820259;59;1134867;-84
2021/11/29 04:35:27;;;;;;;19.77;7.70;;;;;;;0.72;100.00;98813.47;4801037;61;1134939;-83
2021/11/29 04:40:34;;;;;;;10.53;6.37;;;;;;;0.72;100.00;98823.04;4935148;60;1134947;-83
2021/11/29 04:45:40;;;;;;;14.23;8.57;;;;;;;0.73;100.00;98820.80;4965357;59;1135099;-83
2021/11/29 04:50:46;;;;;;;10.13;5.43;;;;;;;0.69;100.00;98822.77;4968588;58;1132949;-83
2021/11/29 04:55:52;;;;;;;19.13;10.47;;;;;;;0.68;100.00;98818.03;4968137;58;1132765;-84
2021/11/29 05:00:57;;;;;;;13.93;6.80;;;;;;;0.69;100.00;98826.67;4949105;58;1139229;-84
2021/11/29 05:06:04;;;;;;;14.03;8.97;;;;;;;0.68;100.00;98831.50;4969187;58;1136760;-83
2021/11/29 05:11:09;;;;;;;16.97;8.83;;;;;;;0.66;100.00;98834.20;4963823;58;1136941;-84
2021/11/29 05:16:15;;;;;;;24.30;11.47;;;;;;;0.64;100.00;98834.76;4970041;58;1137269;-83
2021/11/29 05:21:22;;;;;;;21.73;11.17;;;;;;;0.65;100.00;98845.53;5037888;58;1139139;-85
2021/11/29 05:26:28;;;;;;;17.50;9.60;;;;;;;0.67;100.00;98846.73;5038448;58;1139079;-85
2021/11/29 05:31:34;;;;;;;28.27;14.77;;;;;;;0.65;100.00;98848.14;5037911;58;1136948;-84
2021/11/29 05:36:40;;;;;;;34.07;15.57;;;;;;;0.59;100.00;98853.75;5037520;58;1138988;-84
2021/11/29 05:41:47;;;;;;;32.83;15.27;;;;;;;0.60;100.00;98861.92;5036997;58;1139139;-84
2021/11/29 05:46:53;;;;;;;25.77;11.27;;;;;;;0.60;100.00;98863.22;5037258;58;1139175;-85
2021/11/29 05:52:00;;;;;;;23.67;10.40;;;;;;;0.62;100.00;98869.59;5037402;58;1139258;-84
2021/11/29 05:57:06;;;;;;;24.33;10.97;;;;;;;0.59;100.00;98861.55;5037112;58;1139347;-84
2021/11/29 06:02:12;;;;;;;34.20;15.20;;;;;;;0.55;100.00;98860.06;5037622;58;1139552;-83
2021/11/29 06:07:18;;;;;;;22.63;10.23;;;;;;;0.54;100.00;98866.66;5036889;58;1139032;-84
2021/11/29 06:12:24;;;;;;;38.90;17.53;;;;;;;0.53;100.00;98871.03;5043638;57;1139030;-84
2021/11/29 06:17:30;;;;;;;26.07;12.40;;;;;;;0.53;100.00;98876.23;5016167;58;1139438;-84
2021/11/29 06:22:36;;;;;;;26.10;11.43;;;;;;;0.55;100.00;98887.84;4968797;58;1139028;-84
2021/11/29 06:27:42;;;;;;;36.10;17.50;;;;;;;0.52;100.00;98892.77;4968465;58;1139031;-84
2021/11/29 06:32:47;;;;;;;27.17;11.67;;;;;;;0.49;100.00;98897.31;4940422;59;1139031;-84
2021/11/29 06:38:00;;;;;;;30.17;14.33;;;;;;;0.53;100.00;98898.80;4878766;59;1139233;-85
2021/11/29 06:43:07;;;;;;;24.00;12.88;;;;;;;0.56;100.00;98901.22;4878819;60;1139021;-85
2021/11/29 06:48:12;;;;;;;27.67;15.53;;;;;;;0.57;100.00;98905.49;4879526;60;1138327;-84
2021/11/29 06:53:19;;;;;;;32.63;15.63;;;;;;;0.55;100.00;98913.39;4879828;60;1139687;-84
2021/11/29 06:58:26;;;;;;;22.70;12.98;;;;;;;0.57;100.00;98915.90;4879522;60;1139141;-83
2021/11/29 07:03:34;;;;;;;37.13;17.90;;;;;;;0.58;100.00;98921.01;4905949;59;1139072;-85
2021/11/29 07:08:39;;;;;;;26.47;12.27;;;;;;;0.58;100.00;98922.77;4939055;59;1139066;-85
2021/11/29 07:13:45;;;;;;;36.13;18.23;;;;;;;0.55;100.00;98932.06;4904173;59;1139101;-84
2021/11/29 07:18:51;;;;;;;23.93;12.43;;;;;;;0.56;100.00;98936.33;4885847;59;1139080;-84
2021/11/29 07:23:58;;;;;;;46.63;22.63;;;;;;;0.56;100.00;98939.77;5045713;57;1139505;-85
2021/11/29 07:29:05;;;;;;;39.10;19.90;;;;;;;0.58;100.00;98944.42;5045973;57;1139249;-84
2021/11/29 07:34:11;;;;;;;33.40;16.17;;;;;;;0.60;100.00;98950.37;5045387;57;1139030;-84
2021/11/29 07:39:16;;;;;;;32.30;16.47;;;;;;;0.61;100.00;98953.80;5045522;58;1139022;-84
2021/11/29 07:44:22;;;;;;;28.03;13.97;;;;;;;0.60;100.00;98957.34;5045493;57;1139111;-84
2021/11/29 07:49:28;;;;;;;27.43;13.60;;;;;;;0.62;100.00;98967.98;5045945;57;1139031;-84
2021/11/29 07:54:34;;;;;;;42.87;17.83;;;;;;;0.65;100.00;98975.61;5045377;57;1139004;-84
2021/11/29 07:59:42;;;;;;;32.03;16.23;;;;;;;0.66;100.00;98978.59;5046389;57;1138985;-84
2021/11/29 08:04:49;;;;;;;22.87;9.57;;;;;;;0.69;100.00;98977.10;4985147;58;1139449;-84
2021/11/29 08:09:55;;;;;;;36.97;18.60;;;;;;;0.69;100.00;98980.17;4953111;58;1134996;-83
2021/11/29 08:15:01;;;;;;;26.10;14.00;;;;;;;0.69;100.00;98975.80;4991796;58;1137037;-84
2021/11/29 08:20:09;;;;;;;43.67;23.43;;;;;;;0.69;100.00;98975.80;5017241;59;1136951;-84
2021/11/29 08:25:15;;;;;;;41.07;18.73;;;;;;;0.73;100.00;98993.83;5018098;58;1137210;-84
2021/11/29 08:30:24;;;;;;;57.47;26.17;;;;;;;0.75;100.00;98988.07;5018474;59;1137472;-84
2021/11/29 08:35:30;;;;;;;29.80;15.97;;;;;;;0.74;100.00;98993.73;5019248;59;1136947;-84
2021/11/29 08:40:37;;;;;;;37.47;17.13;;;;;;;0.77;100.00;98991.39;5018669;59;1136898;-83
2021/11/29 08:45:44;;;;;;;52.70;25.63;;;;;;;0.75;100.00;98994.58;5018788;59;1137199;-84
2021/11/29 08:50:54;;;;;;;32.27;16.13;;;;;;;0.72;100.00;98996.89;5017302;59;1137086;-84
2021/11/29 08:56:01;;;;;;;39.37;18.97;;;;;;;0.70;100.00;98998.29;5017797;59;1137179;-84
2021/11/29 09:01:07;;;;;;;46.95;21.23;;;;;;;0.73;100.00;98993.83;5018184;59;1137160;-84
2021/11/29 09:06:13;;;;;;;46.77;18.73;;;;;;;0.74;100.00;98991.60;5018319;59;1137264;-83
2021/11/29 09:11:18;;;;;;;48.23;22.67;;;;;;;0.71;100.00;98992.63;5018145;59;1137397;-84
2021/11/29 09:16:25;;;;;;;52.73;22.75;;;;;;;0.65;100.00;98983.41;4973759;58;1137092;-83
2021/11/29 09:21:31;;;;;;;40.27;19.43;;;;;;;0.72;100.00;98997.36;4952963;59;1136925;-84
2021/11/29 09:26:37;;;;;;;45.33;19.27;;;;;;;0.73;100.00;98993.83;4952769;58;1136993;-84
2021/11/29 09:31:43;;;;;;;37.17;18.43;;;;;;;0.76;100.00;98997.09;4953347;59;1134920;-85
2021/11/29 09:36:49;;;;;;;38.20;17.73;;;;;;;0.80;100.00;98999.01;4953538;58;1135109;-85
2021/11/29 09:41:54;;;;;;;36.03;18.53;;;;;;;0.79;100.00;98993.44;4953405;58;1139027;-84
2021/11/29 09:47:00;;;;;;;43.37;19.07;;;;;;;0.76;100.00;98987.98;4953183;58;1139002;-85
2021/11/29 09:52:06;;;;;;;37.27;17.83;;;;;;;0.74;100.00;98991.60;4953119;58;1139072;-87
2021/11/29 09:57:12;;;;;;;36.80;16.23;;;;;;;0.71;100.00;98996.52;4953489;58;1139082;-84
2021/11/29 10:02:18;;;;;;;35.05;16.80;;;;;;;0.69;100.00;98991.41;4953239;59;1139142;-85
2021/11/29 10:07:38;;;;;;;37.98;16.90;;;;;;;0.69;100.00;98994.02;4952538;58;1139099;-85
2021/11/29 10:12:46;;;;;;;33.83;16.20;;;;;;;0.72;100.00;98997.36;4952843;59;1139435;-85
2021/11/29 10:18:18;;;;;;;37.83;18.27;;;;;;;0.67;100.00;98989.37;5004788;59;1139122;-85
2021/11/29 10:23:34;;;;;;;34.63;17.97;;;;;;;0.68;100.00;98983.70;5018100;59;1139004;-85
2021/11/29 10:28:44;;;;;;;34.00;13.73;;;;;;;0.68;100.00;98984.53;5017220;59;1139219;-85
2021/11/29 10:33:55;;;;;;;38.50;16.53;;;;;;;0.69;100.00;98986.67;5018007;59;1139047;-86
2021/11/29 10:39:05;;;;;;;27.17;14.90;;;;;;;0.68;100.00;98983.70;5018164;58;1139000;-85
2021/11/29 10:44:18;;;;;;;30.37;11.97;;;;;;;0.70;100.00;98985.28;4978255;58;1139048;-86
2021/11/29 10:49:29;;;;;;;32.70;14.33;;;;;;;0.75;100.00;98984.17;4938663;58;1138970;-86
2021/11/29 10:54:39;;;;;;;28.80;14.50;;;;;;;0.77;100.00;98980.98;4938754;58;1139040;-87
2021/11/29 10:59:49;;;;;;;32.13;14.80;;;;;;;0.71;100.00;98975.71;4944251;58;1139033;-88
2021/11/29 11:05:08;;;;;;;38.30;14.20;;;;;;;0.70;100.00;98977.94;4948358;59;1138939;-89
2021/11/29 11:10:16;;;;;;;34.47;17.80;;;;;;;0.74;100.00;98983.33;4948184;59;1139060;-86
2021/11/29 11:15:22;;;;;;;29.73;14.27;;;;;;;0.75;100.00;98977.20;4952384;58;1139192;-87
2021/11/29 11:20:27;;;;;;;29.93;14.73;;;;;;;0.75;100.00;98975.89;5055408;57;1139188;-86
2021/11/29 11:25:42;;;;;;;29.67;13.13;;;;;;;0.74;100.00;98979.42;5060178;57;1136957;-87
2021/11/29 11:30:45;;;;;;;32.83;13.80;;;;;;;0.73;100.00;98986.86;5059681;57;1136888;-87
2021/11/29 11:35:53;;;;;;;26.93;11.43;;;;;;;0.71;100.00;98982.22;5060048;58;1136905;-90
2021/11/29 11:40:59;;;;;;;23.60;12.07;;;;;;;0.69;100.00;98986.67;4992106;57;1136894;-87
2021/11/29 11:46:05;;;;;;;27.15;13.58;;;;;;;0.65;100.00;98975.61;4979057;58;1136872;-87
2021/11/29 11:51:13;;;;;;;28.60;13.80;;;;;;;0.66;100.00;98979.89;4979436;58;1136957;-86
2021/11/29 11:56:20;;;;;;;38.47;15.57;;;;;;;0.69;100.00;98986.67;5020419;57;1136857;-86
2021/11/29 12:01:28;;;;;;;21.47;10.37;;;;;;;0.70;100.00;98987.88;5060227;57;1136958;-87
2021/11/29 12:06:47;;;;;;;24.63;12.03;;;;;;;0.71;100.00;98983.52;5052553;57;1136880;-86
2021/11/29 12:11:51;;;;;;;;;;;;;;;0.67;100.00;98988.53;5050119;57;1136877;-87
2021/11/29 12:17:00;;;;;;;22.57;9.67;;;;;;;0.66;100.00;98994.20;4948928;57;970047;-86
2021/11/29 12:22:24;;;;;;;36.03;14.70;;;;;;;0.61;100.00;98984.53;5062982;58;1132710;-87
2021/11/29 12:27:51;;;;;;;33.53;12.50;;;;;;;0.62;100.00;98982.30;5062803;58;1139204;-88
2021/11/29 12:33:02;;;;;;;26.53;10.07;;;;;;;0.61;100.00;98982.42;5062681;58;1139146;-87
2021/11/29 12:38:19;;;;;;;29.13;13.37;;;;;;;0.59;100.00;98985.58;5063064;58;1139029;-87
2021/11/29 12:43:38;;;;;;;28.40;14.33;;;;;;;0.59;100.00;98990.31;5063040;58;1138990;-87
2021/11/29 12:48:43;;;;;;;19.80;9.07;;;;;;;0.58;100.00;98989.11;5074736;57;1139105;-86
2021/11/29 12:53:49;;;;;;;28.07;11.20;;;;;;;0.59;100.00;98992.92;5116008;58;1136809;-85
2021/11/29 12:59:00;;;;;;;28.20;11.67;;;;;;;0.58;100.00;98990.41;5116319;57;1138976;-87
2021/11/29 13:04:13;;;;;;;26.30;12.20;;;;;;;0.60;100.00;98995.05;5108666;57;1139090;-86
2021/11/29 13:09:19;;;;;;;24.05;12.80;;;;;;;0.62;100.00;98999.67;5105404;57;1139059;-86
2021/11/29 13:14:28;;;;;;;21.53;8.37;;;;;;;0.62;100.00;99004.41;5106748;58;1139114;-86
2021/11/29 13:19:44;;;;;;;15.80;8.83;;;;;;;0.62;100.00;99011.38;5106991;57;1137004;-86
2021/11/29 13:24:51;;;;;;;24.70;12.30;;;;;;;0.60;100.00;99012.80;5107741;58;1137230;-85
2021/11/29 13:30:03;;;;;;;17.43;7.23;;;;;;;0.59;100.00;99011.59;5106919;58;1138989;-84
2021/11/29 13:35:13;;;;;;;20.17;10.10;;;;;;;0.56;100.00;99010.01;5107823;57;1136831;-85
2021/11/29 13:40:24;;;;;;;14.93;7.53;;;;;;;0.55;100.00;99016.14;5107323;57;1139215;-85
2021/11/29 13:45:33;;;;;;;13.77;8.53;;;;;;;0.52;100.00;99020.22;5108076;57;1137107;-86
2021/11/29 13:50:44;;;;;;;28.90;13.67;;;;;;;0.48;100.00;99021.33;5108420;58;1136928;-86
2021/11/29 13:55:57;;;;;;;14.93;8.30;;;;;;;0.50;100.00;99030.34;5107850;58;1139046;-85
2021/11/29 14:01:03;;;;;;;16.43;8.70;;;;;;;0.52;100.00;99028.02;5108155;57;1136990;-85
2021/11/29 14:06:09;;;;;;;12.03;7.10;;;;;;;0.55;100.00;99030.91;5108110;58;1134852;-84
2021/11/29 14:11:24;;;;;;;18.87;9.07;;;;;;;0.57;100.00;99040.76;5108117;58;1134825;-86
2021/11/29 14:16:49;;;;;;;16.07;8.73;;;;;;;0.57;100.00;99045.96;5107891;57;1135071;-85
2021/11/29 14:21:55;;;;;;;15.77;9.10;;;;;;;0.57;100.00;99053.30;5118510;57;1134885;-86
2021/11/29 14:27:05;;;;;;;13.87;7.77;;;;;;;0.55;100.00;99064.72;5120190;57;1134875;-84
2021/11/29 14:32:16;;;;;;;12.00;7.33;;;;;;;0.56;100.00;99076.34;5120233;57;1134850;-84
2021/11/29 14:37:26;;;;;;;11.13;6.53;;;;;;;0.59;100.00;99079.23;5120166;57;1135124;-82
2021/11/29 14:42:42;;;;;;;15.93;9.97;;;;;;;0.60;100.00;99074.40;5120157;57;1134826;-82
2021/11/29 14:47:53;;;;;;;32.83;17.60;;;;;;;0.61;100.00;99089.08;5119960;57;1132913;-83
2021/11/29 14:53:11;;;;;;;53.50;31.67;;;;;;;0.61;100.00;99092.48;5120490;57;1139123;-83
2021/11/29 14:58:27;;;;;;;42.08;17.15;;;;;;;0.63;100.00;99093.70;5119762;57;1139090;-81
2021/11/29 15:03:42;;;;;;;20.40;8.73;;;;;;;0.65;100.00;99101.79;5119776;57;1139040;-81
2021/11/29 15:09:05;;;;;;;20.20;9.73;;;;;;;0.66;100.00;99103.47;5118930;57;1137133;-82
2021/11/29 15:14:17;;;;;;;18.00;8.47;;;;;;;0.65;100.00;99107.00;5120120;57;1136924;-82
2021/11/29 15:19:40;;;;;;;15.77;8.53;;;;;;;0.64;100.00;99110.52;5120301;56;1137061;-83
2021/11/29 15:25:01;;;;;;;18.90;10.00;;;;;;;0.69;100.00;99110.26;5112474;57;1136955;-83
2021/11/29 15:30:13;;;;;;;21.40;10.57;;;;;;;0.69;100.00;99116.30;5076455;57;1139354;-83
2021/11/29 15:35:31;;;;;;;23.80;12.03;;;;;;;0.69;100.00;99125.88;5025921;58;1139006;-83
2021/11/29 15:40:59;;;;;;;17.33;9.17;;;;;;;0.74;100.00;99134.25;5025635;57;1139053;-81
2021/11/29 15:46:14;;;;;;;25.73;12.50;;;;;;;0.79;100.00;99140.45;5020595;58;1136933;-83
2021/11/29 15:51:25;;;;;;;13.80;7.00;;;;;;;0.81;100.00;99133.41;4993892;58;1139037;-86
2021/11/29 15:56:31;;;;;;;21.07;11.70;;;;;;;0.83;100.00;99150.61;5023452;58;1134881;-86
2021/11/29 16:01:37;;;;;;;128.53;50.57;;;;;;;0.84;100.00;99161.39;5084681;57;1137271;-87
2021/11/29 16:06:44;;;;;;;98.33;32.93;;;;;;;0.85;100.00;99166.97;5112117;57;1139056;-89
2021/11/29 16:11:49;;;;;;;292.90;74.97;;;;;;;0.86;100.00;99160.00;5086649;57;1137139;-84
2021/11/29 16:16:55;;;;;;;135.80;42.30;;;;;;;0.90;100.00;99164.10;5065910;57;1139209;-85
2021/11/29 16:22:02;;;;;;;46.13;22.43;;;;;;;0.93;100.00;99167.33;5108169;57;1138995;-82
2021/11/29 16:27:08;;;;;;;34.23;17.70;;;;;;;0.91;100.00;99162.71;4875237;59;1136954;-93
2021/11/29 16:32:14;;;;;;;20.40;11.30;;;;;;;0.91;100.00;99167.08;4861291;59;1136922;-88
2021/11/29 16:37:20;;;;;;;23.77;13.00;;;;;;;0.92;100.00;99182.58;4870203;59;1136974;-86
2021/11/29 16:42:26;;;;;;;27.17;16.07;;;;;;;0.94;100.00;99181.19;4847791;59;1137177;-85
2021/11/29 16:47:32;;;;;;;26.10;12.20;;;;;;;0.96;100.00;99187.14;4825472;59;1137109;-86
2021/11/29 16:52:38;;;;;;;24.10;13.17;;;;;;;1.00;100.00;99191.25;4876724;60;1137001;-84
2021/11/29 16:57:44;;;;;;;27.07;13.07;;;;;;;1.05;100.00;99195.73;4796611;60;1137085;-82
2021/11/29 17:02:51;;;;;;;31.10;18.93;;;;;;;1.06;100.00;99198.70;4850922;60;1136971;-88
2021/11/29 17:07:57;;;;;;;44.83;20.53;;;;;;;1.06;100.00;99198.70;4796612;60;1136969;-90
2021/11/29 17:13:02;;;;;;;47.60;20.33;;;;;;;1.08;100.00;99211.14;4775919;61;1137231;-87
2021/11/29 17:18:09;;;;;;;27.90;13.07;;;;;;;1.11;100.00;99215.33;4720412;61;1137190;-86
2021/11/29 17:23:16;;;;;;;33.25;15.53;;;;;;;1.14;100.00;99215.16;4859229;60;1136991;-86
2021/11/29 17:28:22;;;;;;;37.00;16.40;;;;;;;1.17;100.00;99218.88;4953270;59;1135183;-85
2021/11/29 17:33:30;;;;;;;25.17;13.23;;;;;;;1.15;100.00;99215.06;4956402;59;21562;-87
2021/11/29 17:38:35;;;;;;;29.90;14.30;;;;;;;1.23;100.00;99229.75;4937648;59;1135071;-89
2021/11/29 17:43:41;;;;;;;41.67;20.63;;;;;;;1.26;100.00;99234.78;4938040;58;1139051;-91
2021/11/29 17:48:47;;;;;;;34.00;16.30;;;;;;;1.31;100.00;99235.35;4966266;58;1139017;-85
2021/11/29 17:53:53;;;;;;;26.87;12.57;;;;;;;1.33;100.00;99245.22;4950327;58;1139017;-85
2021/11/29 17:58:59;;;;;;;26.77;13.10;;;;;;;1.35;100.00;99249.03;5005749;58;1139027;-86
2021/11/29 18:04:07;;;;;;;24.70;12.85;;;;;;;1.37;100.00;99255.83;5009772;58;1139003;-85
2021/11/29 18:14:21;;;;;;;23.87;11.13;;;;;;;1.41;100.00;99261.67;5004648;57;1139267;-88
2021/11/29 18:19:29;;;;;;;27.37;13.70;;;;;;;1.41;100.00;99261.20;5010156;57;1139052;-86
2021/11/29 18:24:35;;;;;;;27.10;13.20;;;;;;;1.43;100.00;99261.58;4990250;58;1139134;-85
2021/11/29 18:29:41;;;;;;;33.13;15.40;;;;;;;1.43;100.00;99267.63;4978916;58;1139100;-86
2021/11/29 18:34:46;;;;;;;25.70;11.13;;;;;;;1.45;100.00;99272.75;4970820;58;1138939;-86
2021/11/29 18:39:53;;;;;;;20.35;10.13;;;;;;;1.48;100.00;99276.48;4987876;57;1139114;-87
2021/11/29 18:45:00;;;;;;;21.27;10.18;;;;;;;1.49;100.00;99272.95;5018467;58;1139009;-86
2021/11/29 18:50:10;;;;;;;21.43;10.90;;;;;;;1.48;100.00;99273.41;4954696;59;1139084;-86
2021/11/29 18:55:17;;;;;;;24.77;11.37;;;;;;;1.50;100.00;99275.93;4954340;59;1139401;-84
2021/11/29 19:00:22;;;;;;;23.87;11.93;;;;;;;1.50;100.00;99276.77;4954554;59;1139080;-85
2021/11/29 19:05:29;;;;;;;23.37;12.13;;;;;;;1.51;100.00;99279.75;4820641;60;1139131;-76
2021/11/29 19:10:36;;;;;;;16.87;9.40;;;;;;;1.49;100.00;99284.21;4905654;59;1139031;-79
2021/11/29 19:15:42;;;;;;;20.10;9.80;;;;;;;1.48;100.00;99302.07;4968885;59;1137215;-81
2021/11/29 19:20:49;;;;;;;18.73;8.60;;;;;;;1.48;100.00;99302.07;4970836;58;1137026;-84
2021/11/29 19:25:55;;;;;;;16.07;10.08;;;;;;;1.50;100.00;99307.20;5003167;59;1137147;-80
2021/11/29 19:31:00;;;;;;;22.53;10.37;;;;;;;1.49;100.00;99319.38;4900169;60;1139098;-81
2021/11/29 19:36:06;;;;;;;10.00;5.90;;;;;;;1.51;100.00;99324.04;4823115;60;1139566;-83
2021/11/29 19:46:30;;;;;;;12.03;6.53;;;;;;;1.51;100.00;99331.86;4941671;58;1137287;-76
2021/11/29 19:51:36;;;;;;;12.63;6.27;;;;;;;1.49;100.00;99327.20;5028474;59;1136968;-82
2021/11/29 19:56:43;;;;;;;11.20;5.92;;;;;;;1.48;100.00;99329.43;5028414;59;1136997;-85
2021/11/29 20:01:50;;;;;;;16.10;10.50;;;;;;;1.47;100.00;99332.13;5028379;59;1137033;-79
2021/11/29 20:06:56;;;;;;;10.83;5.60;;;;;;;1.46;100.00;99341.70;5011635;58;1139068;-76
2021/11/29 20:12:01;;;;;;;13.77;7.33;;;;;;;1.46;100.00;99346.07;5049461;58;1136976;-79
2021/11/29 20:17:08;;;;;;;11.03;5.30;;;;;;;1.43;100.00;99352.77;5074678;58;1137056;-82
2021/11/29 20:22:16;;;;;;;8.87;5.27;;;;;;;1.35;100.00;99348.02;5059654;58;1137082;-78
2021/11/29 20:27:21;;;;;;;6.57;5.17;;;;;;;1.28;100.00;99351.89;4965366;58;1134950;-78
2021/11/29 20:32:28;;;;;;;7.87;5.93;;;;;;;1.22;100.00;99356.98;4910062;59;1132831;-79
2021/11/29 20:37:34;;;;;;;5.70;4.50;;;;;;;1.22;100.00;99355.68;4921772;59;1132827;-84
2021/11/29 20:42:41;;;;;;;10.60;4.67;;;;;;;1.24;100.00;99357.73;4909225;59;1133132;-83
2021/11/29 20:47:47;;;;;;;13.43;5.13;;;;;;;1.25;100.00;99359.41;4933835;59;1135131;-77
2021/11/29 20:52:53;;;;;;;5.37;4.07;;;;;;;1.27;100.00;99363.23;4933665;59;1134835;-81
2021/11/29 20:57:59;;;;;;;6.72;4.85;;;;;;;1.28;100.00;99367.05;4941957;59;1132923;-81
2021/11/29 21:03:05;;;;;;;6.23;3.67;;;;;;;1.28;100.00;99368.82;4954809;59;1132821;-78
2021/11/29 21:08:10;;;;;;;11.53;4.90;;;;;;;1.25;100.00;99378.11;4954878;59;1132720;-79
2021/11/29 21:13:16;;;;;;;10.37;5.17;;;;;;;1.17;100.00;99382.94;4954764;59;1134810;-83
2021/11/29 21:18:22;;;;;;;10.57;6.43;;;;;;;1.11;100.00;99387.17;4909415;59;1134942;-78
2021/11/29 21:23:28;;;;;;;15.07;6.63;;;;;;;1.07;100.00;99402.62;4877426;59;1134931;-81
2021/11/29 21:28:34;;;;;;;10.57;6.03;;;;;;;1.04;100.00;99401.86;4961805;59;1134961;-79
2021/11/29 21:33:40;;;;;;;14.50;6.10;;;;;;;1.03;100.00;99396.73;4968338;59;1134856;-83
2021/11/29 21:38:47;;;;;;;9.77;5.00;;;;;;;1.01;100.00;99405.94;4977699;58;1135120;-83
2021/11/29 21:43:54;;;;;;;12.50;5.10;;;;;;;0.98;100.00;99406.56;4978707;58;1132823;-85
2021/11/29 21:49:00;;;;;;;12.17;6.90;;;;;;;0.96;100.00;99418.82;4978598;58;1134869;-78
2021/11/29 21:54:05;;;;;;;10.33;5.93;;;;;;;0.98;100.00;99418.28;4978670;58;1134946;-81
2021/11/29 21:59:11;;;;;;;10.93;4.13;;;;;;;1.01;100.00;99421.55;5048206;58;1134995;-76
2021/11/29 22:04:17;;;;;;;7.60;5.27;;;;;;;1.04;100.00;99418.78;5050817;58;1132902;-80
2021/11/29 22:09:23;;;;;;;8.93;4.50;;;;;;;1.11;100.00;99424.93;5051293;58;1130873;-83
2021/11/29 22:14:35;;;;;;;3.27;2.60;;;;;;;1.13;100.00;99429.13;5051100;57;1134847;-81
2021/11/29 22:19:38;;;;;;;9.03;4.07;;;;;;;1.15;100.00;99427.28;5051380;58;1135073;-82
2021/11/29 22:24:44;;;;;;;14.23;4.67;;;;;;;1.15;100.00;99429.89;5060946;57;1135008;-79
2021/11/29 22:29:50;;;;;;;11.80;5.43;;;;;;;1.15;100.00;99433.80;5051249;57;1137009;-84
2021/11/29 22:34:55;;;;;;;2.53;2.33;;;;;;;1.13;100.00;99430.44;5051193;57;1137139;-78
2021/11/29 22:40:01;;;;;;;4.77;3.37;;;;;;;1.13;100.00;99434.80;5051253;57;1134915;-78
2021/11/29 22:45:07;;;;;;;6.12;3.25;;;;;;;1.13;100.00;99433.50;5055463;57;1134947;-81
2021/11/29 22:50:15;;;;;;;9.53;4.30;;;;;;;1.14;100.00;99437.32;5074423;57;1134753;-77
2021/11/29 22:55:21;;;;;;;6.37;3.40;;;;;;;1.15;100.00;99439.46;5051012;58;1134903;-80
2021/11/29 23:00:51;;;;;;;6.73;3.90;;;;;;;1.16;100.00;99443.28;5051042;57;1134885;-81
2021/11/29 23:06:12;;;;;;;6.07;3.33;;;;;;;1.16;100.00;99448.49;5022030;57;1134961;-77
2021/11/29 23:11:24;;;;;;;10.43;4.97;;;;;;;1.13;100.00;99456.47;5051188;57;1134861;-79
2021/11/29 23:16:30;;;;;;;5.67;3.77;;;;;;;1.13;100.00;99462.14;5050930;57;1137140;-82
2021/11/29 23:21:37;;;;;;;5.57;3.00;;;;;;;1.12;100.00;99463.91;5051027;58;1135075;-82
2021/11/29 23:26:43;;;;;;;6.37;3.67;;;;;;;1.12;100.00;99467.81;5046250;58;1134920;-76